createdAt,value
2019-04-14T00:00:07.543Z,192.27
2019-04-14T00:02:49.152Z,176.50
2019-04-14T00:05:21.011Z,161.60
2019-04-14T00:07:51.766Z,141.70
2019-04-14T00:10:23.193Z,162.07
2019-04-14T00:12:55.673Z,155.37
2019-04-14T00:15:32.967Z,169.50
2019-04-14T00:17:58.968Z,141.63
2019-04-14T00:20:29.727Z,140.00
2019-04-14T00:23:00.215Z,147.20
2019-04-14T00:25:30.745Z,169.97
2019-04-14T00:28:01.329Z,164.60
2019-04-14T00:30:31.870Z,166.33
2019-04-14T00:33:06.187Z,155.53
2019-04-14T00:35:55.929Z,164.80
2019-04-14T00:38:39.095Z,163.67
2019-04-14T00:41:47.232Z,151.47
2019-04-14T00:44:32.647Z,158.50
2019-04-14T00:47:11.440Z,134.07
2019-04-14T00:49:42.064Z,147.43
2019-04-14T00:52:12.721Z,128.33
2019-04-14T00:54:43.498Z,143.17
2019-04-14T00:57:14.122Z,145.90
2019-04-14T00:59:44.789Z,145.10
2019-04-14T01:02:15.257Z,142.57
2019-04-14T01:04:46.619Z,145.80
2019-04-14T01:07:19.494Z,137.17
2019-04-14T01:09:51.037Z,126.40
2019-04-14T01:12:21.764Z,130.43
2019-04-14T01:14:52.306Z,130.13
2019-04-14T01:17:24.477Z,131.93
2019-04-14T01:19:55.163Z,135.10
2019-04-14T01:22:25.640Z,134.43
2019-04-14T01:24:56.090Z,123.87
2019-04-14T01:27:27.664Z,119.93
2019-04-14T01:29:58.316Z,127.07
2019-04-14T01:32:28.943Z,128.47
2019-04-14T01:34:59.450Z,127.53
2019-04-14T01:37:31.089Z,122.70
2019-04-14T01:40:05.217Z,125.23
2019-04-14T01:42:35.773Z,117.67
2019-04-14T01:45:07.961Z,122.40
2019-04-14T01:47:39.875Z,125.63
2019-04-14T01:50:10.542Z,111.50
2019-04-14T01:53:09.680Z,112.27
2019-04-14T01:56:08.321Z,108.30
2019-04-14T01:58:46.888Z,108.67
2019-04-14T02:01:26.638Z,106.27
2019-04-14T02:03:58.404Z,109.30
2019-04-14T02:06:29.006Z,100.67
2019-04-14T02:08:59.523Z,101.63
2019-04-14T02:11:31.253Z,97.00
2019-04-14T02:14:01.981Z,98.90
2019-04-14T02:16:39.724Z,98.93
2019-04-14T02:19:05.198Z,96.83
2019-04-14T02:21:36.661Z,89.63
2019-04-14T02:24:09.250Z,92.77
2019-04-14T02:26:41.605Z,98.23
2019-04-14T02:29:12.242Z,89.10
2019-04-14T02:32:13.700Z,92.40
2019-04-14T02:34:47.968Z,92.00
2019-04-14T02:37:26.649Z,98.60
2019-04-14T02:39:54.291Z,90.73
2019-04-14T02:47:47.276Z,97.13
2019-04-14T02:52:30.091Z,103.47
2019-04-14T02:54:59.923Z,89.80
2019-04-14T02:57:30.475Z,89.10
2019-04-14T03:05:01.834Z,81.77
2019-04-14T03:10:19.606Z,82.63
2019-04-14T03:12:46.447Z,81.97
2019-04-14T03:15:25.323Z,78.30
2019-04-14T03:21:38.173Z,79.87
2019-04-14T03:24:09.376Z,69.07
2019-04-14T03:26:54.164Z,72.30
2019-04-14T03:29:28.867Z,69.80
2019-04-14T03:32:15.137Z,67.30
2019-04-14T03:37:30.559Z,66.97
2019-04-14T03:39:38.590Z,66.83
2019-04-14T03:42:08.572Z,70.13
2019-04-14T03:47:21.795Z,66.97
2019-04-14T03:49:45.035Z,63.47
2019-04-14T03:52:27.153Z,68.87
2019-04-14T03:54:44.126Z,59.43
2019-04-14T03:57:00.172Z,63.97
2019-04-14T03:59:30.710Z,54.20
2019-04-14T04:02:01.258Z,58.63
2019-04-14T04:04:31.764Z,54.40
2019-04-14T04:07:02.309Z,64.43
2019-04-14T04:09:36.549Z,54.93
2019-04-14T04:12:07.476Z,59.90
2019-04-14T04:14:38.176Z,53.37
2019-04-14T04:17:27.523Z,61.00
2019-04-14T04:20:03.207Z,50.53
2019-04-14T04:22:52.350Z,56.63
2019-04-14T04:25:40.701Z,58.83
2019-04-14T04:28:28.495Z,56.13
2019-04-14T04:31:04.532Z,53.93
2019-04-14T04:33:52.301Z,54.97
2019-04-14T04:36:48.684Z,54.90
2019-04-14T04:39:22.179Z,53.33
2019-04-14T04:41:53.701Z,57.93
2019-04-14T04:44:24.784Z,49.40
2019-04-14T04:46:55.459Z,59.77
2019-04-14T04:49:28.944Z,53.80
2019-04-14T04:51:58.051Z,58.87
2019-04-14T04:54:28.607Z,53.20
2019-04-14T04:57:00.130Z,54.30
2019-04-14T04:59:30.660Z,54.83
2019-04-14T05:02:01.160Z,56.10
2019-04-14T05:04:32.741Z,56.90
2019-04-14T05:07:03.735Z,48.87
2019-04-14T05:10:08.848Z,48.33
2019-04-14T05:13:01.259Z,52.93
2019-04-14T05:15:51.099Z,43.40
2019-04-14T05:18:26.768Z,43.10
2019-04-14T05:20:57.480Z,45.63
2019-04-14T05:23:28.032Z,43.60
2019-04-14T05:25:58.605Z,38.93
2019-04-14T05:28:31.022Z,38.80
2019-04-14T05:31:03.227Z,39.37
2019-04-14T05:33:33.883Z,38.73
2019-04-14T05:36:04.400Z,36.67
2019-04-14T05:38:35.791Z,36.93
2019-04-14T05:41:07.179Z,35.87
2019-04-14T05:43:45.429Z,37.33
2019-04-14T05:46:10.021Z,38.27
2019-04-14T05:48:40.565Z,37.00
2019-04-14T05:51:11.071Z,38.97
2019-04-14T05:53:41.601Z,40.20
2019-04-14T05:56:12.214Z,39.07
2019-04-14T05:58:44.736Z,38.60
2019-04-14T06:01:16.075Z,42.40
2019-04-14T06:03:47.521Z,40.00
2019-04-14T06:06:18.083Z,43.30
2019-04-14T06:08:48.665Z,41.03
2019-04-14T06:11:19.278Z,42.67
2019-04-14T06:13:49.768Z,37.53
2019-04-14T06:16:20.269Z,38.83
2019-04-14T06:18:53.945Z,41.27
2019-04-14T06:21:24.526Z,36.77
2019-04-14T06:23:57.328Z,43.27
2019-04-14T06:26:27.990Z,33.13
2019-04-14T06:28:58.718Z,34.63
2019-04-14T06:31:42.596Z,32.00
2019-04-14T06:34:21.017Z,35.93
2019-04-14T06:37:08.319Z,30.90
2019-04-14T06:39:42.164Z,38.10
2019-04-14T06:42:12.807Z,35.70
2019-04-14T06:44:43.338Z,31.33
2019-04-14T06:47:13.864Z,30.47
2019-04-14T06:49:49.061Z,33.17
2019-04-14T06:52:18.894Z,36.50
2019-04-14T06:54:49.447Z,32.33
2019-04-14T06:57:20.004Z,31.50
2019-04-14T06:59:50.448Z,35.83
2019-04-14T07:02:20.937Z,36.17
2019-04-14T07:04:51.494Z,31.77
2019-04-14T07:07:23.230Z,27.27
2019-04-14T07:09:53.746Z,32.13
2019-04-14T07:12:24.254Z,35.73
2019-04-14T07:14:54.848Z,30.17
2019-04-14T07:17:25.434Z,30.77
2019-04-14T07:20:01.953Z,32.30
2019-04-14T07:22:28.132Z,28.97
2019-04-14T07:24:58.740Z,28.70
2019-04-14T07:27:29.274Z,28.30
2019-04-14T07:30:33.722Z,29.33
2019-04-14T07:33:23.246Z,29.37
2019-04-14T07:36:11.444Z,29.83
2019-04-14T07:38:48.484Z,25.83
2019-04-14T07:41:32.742Z,31.90
2019-04-14T07:44:14.887Z,25.23
2019-04-14T07:46:57.238Z,26.53
2019-04-14T07:49:40.436Z,28.07
2019-04-14T07:52:24.252Z,29.90
2019-04-14T07:55:03.577Z,26.33
2019-04-14T07:57:56.099Z,30.77
2019-04-14T08:00:39.763Z,30.83
2019-04-14T08:03:29.298Z,33.27
2019-04-14T08:05:59.870Z,28.93
2019-04-14T08:08:30.475Z,27.60
2019-04-14T08:11:01.037Z,31.03
2019-04-14T08:13:31.656Z,31.73
2019-04-14T08:16:02.256Z,29.33
2019-04-14T08:18:32.835Z,28.43
2019-04-14T08:21:03.342Z,27.20
2019-04-14T08:23:37.613Z,28.07
2019-04-14T08:26:08.153Z,28.80
2019-04-14T08:28:41.184Z,31.10
2019-04-14T08:31:11.753Z,27.43
2019-04-14T08:33:43.651Z,32.40
2019-04-14T08:36:14.278Z,28.00
2019-04-14T08:38:44.854Z,32.63
2019-04-14T08:41:15.455Z,27.97
2019-04-14T08:44:17.204Z,29.13
2019-04-14T08:47:09.908Z,26.33
2019-04-14T08:49:59.470Z,29.73
2019-04-14T08:52:38.028Z,28.83
2019-04-14T08:55:21.078Z,26.43
2019-04-14T08:57:59.031Z,30.23
2019-04-14T09:00:38.148Z,28.00
2019-04-14T09:03:26.522Z,38.23
2019-04-14T09:06:19.510Z,32.30
2019-04-14T09:09:17.936Z,28.77
2019-04-14T09:12:00.483Z,29.13
2019-04-14T09:14:31.135Z,36.93
2019-04-14T09:17:01.680Z,32.77
2019-04-14T09:19:32.505Z,30.20
2019-04-14T09:22:03.218Z,25.00
2019-04-14T09:24:33.673Z,25.57
2019-04-14T09:27:04.743Z,25.93
2019-04-14T09:29:37.571Z,25.10
2019-04-14T09:32:11.095Z,19.60
2019-04-14T09:34:41.626Z,24.13
2019-04-14T09:37:12.347Z,30.53
2019-04-14T09:39:43.303Z,28.23
2019-04-14T09:42:14.977Z,25.47
2019-04-14T09:44:45.630Z,22.97
2019-04-14T09:47:16.265Z,25.10
2019-04-14T09:49:46.935Z,22.30
2019-04-14T09:52:17.402Z,26.07
2019-04-14T09:54:48.063Z,26.00
2019-04-14T09:57:18.817Z,22.77
2019-04-14T09:59:50.542Z,22.73
2019-04-14T10:02:21.119Z,22.77
2019-04-14T10:04:53.113Z,22.97
2019-04-14T10:07:23.603Z,26.27
2019-04-14T10:09:54.235Z,22.20
2019-04-14T10:12:24.745Z,21.23
2019-04-14T10:14:55.385Z,21.00
2019-04-14T10:17:26.066Z,28.00
2019-04-14T10:19:56.557Z,23.13
2019-04-14T10:22:33.806Z,23.37
2019-04-14T10:24:59.685Z,23.07
2019-04-14T10:27:30.214Z,21.97
2019-04-14T10:30:00.700Z,23.13
2019-04-14T10:32:31.476Z,21.90
2019-04-14T10:35:02.093Z,23.77
2019-04-14T10:37:33.742Z,24.00
2019-04-14T10:40:06.215Z,25.63
2019-04-14T10:42:36.975Z,23.87
2019-04-14T10:45:07.736Z,21.30
2019-04-14T10:47:38.621Z,25.00
2019-04-14T10:50:10.777Z,21.83
2019-04-14T10:52:42.379Z,23.37
2019-04-14T10:55:15.326Z,25.43
2019-04-14T10:57:45.924Z,24.83
2019-04-14T11:00:17.477Z,20.70
2019-04-14T11:02:48.233Z,22.83
2019-04-14T11:05:20.267Z,19.90
2019-04-14T11:07:51.275Z,24.63
2019-04-14T11:10:21.912Z,21.30
2019-04-14T11:12:54.956Z,22.83
2019-04-14T11:15:26.537Z,24.73
2019-04-14T11:17:57.215Z,21.30
2019-04-14T11:20:27.729Z,26.20
2019-04-14T11:23:03.597Z,24.80
2019-04-14T11:25:30.309Z,25.37
2019-04-14T11:28:00.833Z,22.17
2019-04-14T11:30:31.365Z,24.00
2019-04-14T11:33:10.984Z,23.83
2019-04-14T11:35:59.100Z,21.87
2019-04-14T11:38:35.926Z,23.13
2019-04-14T11:41:10.962Z,22.30
2019-04-14T11:43:42.784Z,22.70
2019-04-14T11:46:13.420Z,24.70
2019-04-14T11:48:44.037Z,23.27
2019-04-14T11:51:16.955Z,20.90
2019-04-14T11:53:47.504Z,26.73
2019-04-14T11:56:18.075Z,21.83
2019-04-14T11:58:48.666Z,21.97
2019-04-14T12:01:44.472Z,22.30
2019-04-14T12:04:46.130Z,22.10
2019-04-14T12:07:34.424Z,21.33
2019-04-14T12:10:08.566Z,24.50
2019-04-14T12:12:39.179Z,24.47
2019-04-14T12:15:16.165Z,20.83
2019-04-14T12:17:42.248Z,22.47
2019-04-14T12:20:14.348Z,20.90
2019-04-14T12:22:44.879Z,21.30
2019-04-14T12:25:15.629Z,19.93
2019-04-14T12:27:46.591Z,20.13
2019-04-14T12:30:18.038Z,18.67
2019-04-14T12:32:48.686Z,22.03
2019-04-14T12:35:19.982Z,19.43
2019-04-14T12:37:50.681Z,19.67
2019-04-14T12:40:21.143Z,18.43
2019-04-14T12:43:14.410Z,15.97
2019-04-14T12:46:02.463Z,19.10
2019-04-14T12:48:51.923Z,18.73
2019-04-14T12:51:27.819Z,17.63
2019-04-14T12:53:58.317Z,22.17
2019-04-14T12:56:29.835Z,24.00
2019-04-14T12:59:19.263Z,16.30
2019-04-14T13:02:07.277Z,14.50
2019-04-14T13:04:37.837Z,16.87
2019-04-14T13:07:08.431Z,12.80
2019-04-14T13:09:39.003Z,18.77
2019-04-14T13:12:10.404Z,17.00
2019-04-14T13:14:41.100Z,15.47
2019-04-14T13:17:11.700Z,18.00
2019-04-14T13:19:42.227Z,16.10
2019-04-14T13:22:13.864Z,19.57
2019-04-14T13:24:44.415Z,16.83
2019-04-14T13:27:14.982Z,16.10
2019-04-14T13:29:45.519Z,16.17
2019-04-14T13:32:16.261Z,15.77
2019-04-14T13:34:46.969Z,17.53
2019-04-14T13:37:17.538Z,18.83
2019-04-14T13:39:48.159Z,17.47
2019-04-14T13:42:19.888Z,23.27
2019-04-14T13:44:50.359Z,13.53
2019-04-14T13:47:20.939Z,16.77
2019-04-14T13:49:52.165Z,17.50
2019-04-14T13:52:22.670Z,17.70
2019-04-14T13:54:53.123Z,17.00
2019-04-14T13:57:23.715Z,14.40
2019-04-14T13:59:54.153Z,20.00
2019-04-14T14:02:26.832Z,18.10
2019-04-14T14:04:57.351Z,16.60
2019-04-14T14:07:27.959Z,16.73
2019-04-14T14:09:58.544Z,18.17
2019-04-14T14:12:39.988Z,15.87
2019-04-14T14:15:47.941Z,19.40
2019-04-14T14:18:31.471Z,18.80
2019-04-14T14:21:19.763Z,15.43
2019-04-14T14:24:12.680Z,19.67
2019-04-14T14:26:43.584Z,15.97
2019-04-14T14:29:14.245Z,18.53
2019-04-14T14:31:44.707Z,16.43
2019-04-14T14:34:15.371Z,18.37
2019-04-14T14:36:45.835Z,17.77
2019-04-14T14:39:19.720Z,19.60
2019-04-14T14:41:50.365Z,17.27
2019-04-14T14:44:22.535Z,15.73
2019-04-14T14:46:58.552Z,17.07
2019-04-14T14:49:53.999Z,17.97
2019-04-14T14:52:24.669Z,19.47
2019-04-14T14:54:55.265Z,18.27
2019-04-14T14:57:25.778Z,17.10
2019-04-14T14:59:56.395Z,18.03
2019-04-14T15:02:26.885Z,18.77
2019-04-14T15:04:57.518Z,17.70
2019-04-14T15:07:28.045Z,17.70
2019-04-14T15:09:58.671Z,16.87
2019-04-14T15:12:29.296Z,13.73
2019-04-14T15:14:59.883Z,15.77
2019-04-14T15:17:30.401Z,15.67
2019-04-14T15:20:00.995Z,16.87
2019-04-14T15:22:31.547Z,14.47
2019-04-14T15:25:02.076Z,18.77
2019-04-14T15:27:32.661Z,16.17
2019-04-14T15:30:03.650Z,15.13
2019-04-14T15:32:34.241Z,22.07
2019-04-14T15:35:06.509Z,15.73
2019-04-14T15:37:37.089Z,15.83
2019-04-14T15:40:08.509Z,13.53
2019-04-14T15:42:39.991Z,14.03
2019-04-14T15:45:13.878Z,16.10
2019-04-14T15:47:43.822Z,17.17
2019-04-14T15:50:14.599Z,15.20
2019-04-14T15:52:46.176Z,16.37
2019-04-14T15:55:18.055Z,14.50
2019-04-14T15:58:06.130Z,14.73
2019-04-14T16:01:04.773Z,15.63
2019-04-14T16:03:46.495Z,16.60
2019-04-14T16:06:30.005Z,13.73
2019-04-14T16:09:25.521Z,15.93
2019-04-14T16:12:17.735Z,15.40
2019-04-14T16:15:06.715Z,14.30
2019-04-14T16:18:02.362Z,18.47
2019-04-14T16:20:35.489Z,15.90
2019-04-14T16:23:08.000Z,17.37
2019-04-14T16:25:58.935Z,18.57
2019-04-14T16:28:34.639Z,14.70
2019-04-14T16:31:24.160Z,14.43
2019-04-14T16:34:03.570Z,18.73
2019-04-14T16:36:34.211Z,15.43
2019-04-14T16:39:06.817Z,15.23
2019-04-14T16:41:38.941Z,15.70
2019-04-14T16:44:09.449Z,14.97
2019-04-14T16:46:40.130Z,16.23
2019-04-14T16:49:10.787Z,12.60
2019-04-14T16:51:46.511Z,14.20
2019-04-14T16:54:39.252Z,12.13
2019-04-14T16:57:31.651Z,12.63
2019-04-14T17:00:02.189Z,12.57
2019-04-14T17:02:33.575Z,13.80
2019-04-14T17:05:04.596Z,11.70
2019-04-14T17:07:36.971Z,10.57
2019-04-14T17:10:07.929Z,10.30
2019-04-14T17:12:38.809Z,11.80
2019-04-14T17:15:27.095Z,9.87
2019-04-14T17:18:12.768Z,15.77
2019-04-14T17:21:01.091Z,11.33
2019-04-14T17:23:39.746Z,12.83
2019-04-14T17:26:32.008Z,10.27
2019-04-14T17:29:33.657Z,10.13
2019-04-14T17:32:29.132Z,13.33
2019-04-14T17:35:20.014Z,14.80
2019-04-14T17:37:57.724Z,11.83
2019-04-14T17:40:46.817Z,12.27
2019-04-14T17:43:36.531Z,9.40
2019-04-14T17:46:24.889Z,10.27
2019-04-14T17:49:19.909Z,9.33
2019-04-14T17:52:10.798Z,9.43
2019-04-14T17:55:06.333Z,10.03
2019-04-14T17:58:23.411Z,8.70
2019-04-14T18:01:11.379Z,10.23
2019-04-14T18:03:55.532Z,11.33
2019-04-14T18:06:34.169Z,15.17
2019-04-14T18:09:29.030Z,15.67
2019-04-14T18:12:18.821Z,15.53
2019-04-14T18:15:24.460Z,17.20
2019-04-14T18:18:25.930Z,16.53
2019-04-14T18:20:58.874Z,15.83
2019-04-14T18:23:29.574Z,20.33
2019-04-14T18:26:00.187Z,18.07
2019-04-14T18:28:42.741Z,18.17
2019-04-14T18:31:35.273Z,15.93
2019-04-14T18:34:20.051Z,19.07
2019-04-14T18:36:55.522Z,16.77
2019-04-14T18:39:49.573Z,19.77
2019-04-14T18:42:42.278Z,17.90
2019-04-14T18:45:38.678Z,15.30
2019-04-14T18:48:20.718Z,17.00
2019-04-14T18:51:09.274Z,17.40
2019-04-14T18:53:58.750Z,16.57
2019-04-14T18:56:51.386Z,16.13
2019-04-14T18:59:46.619Z,16.60
2019-04-14T19:02:18.982Z,19.33
2019-04-14T19:04:49.497Z,17.17
2019-04-14T19:07:20.071Z,14.73
2019-04-14T19:09:51.868Z,20.27
2019-04-14T19:12:41.336Z,19.40
2019-04-14T19:15:40.233Z,17.13
2019-04-14T19:18:20.923Z,17.20
2019-04-14T19:20:57.776Z,15.37
2019-04-14T19:23:28.564Z,17.63
2019-04-14T19:25:59.067Z,13.57
2019-04-14T19:28:30.628Z,18.17
2019-04-14T19:31:01.185Z,15.27
2019-04-14T19:33:31.722Z,19.33
2019-04-14T19:36:03.146Z,18.63
2019-04-14T19:38:33.610Z,19.20
2019-04-14T19:41:04.191Z,24.53
2019-04-14T19:43:34.824Z,18.07
2019-04-14T19:46:05.321Z,14.43
2019-04-14T19:48:35.890Z,22.43
2019-04-14T19:51:06.382Z,16.70
2019-04-14T19:53:37.041Z,16.77
2019-04-14T19:56:07.533Z,13.93
2019-04-14T19:58:38.082Z,14.47
2019-04-14T20:01:08.545Z,18.07
2019-04-14T20:03:39.092Z,18.60
2019-04-14T20:06:09.574Z,17.40
2019-04-14T20:08:40.126Z,19.67
2019-04-14T20:11:10.593Z,15.10
2019-04-14T20:13:46.859Z,21.80
2019-04-14T20:16:36.330Z,15.30
2019-04-14T20:19:27.566Z,14.10
2019-04-14T20:22:08.292Z,15.40
2019-04-14T20:24:44.296Z,15.23
2019-04-14T20:27:37.001Z,14.93
2019-04-14T20:30:12.350Z,13.43
2019-04-14T20:32:43.673Z,14.00
2019-04-14T20:35:14.950Z,12.60
2019-04-14T20:37:45.424Z,13.90
2019-04-14T20:40:16.290Z,14.30
2019-04-14T20:42:46.795Z,15.83
2019-04-14T20:45:17.264Z,13.33
2019-04-14T20:47:48.314Z,12.57
2019-04-14T20:50:18.938Z,15.13
2019-04-14T20:52:51.878Z,15.33
2019-04-14T20:55:22.358Z,13.33
2019-04-14T20:57:52.999Z,13.60
2019-04-14T21:00:24.301Z,31.13
2019-04-14T21:03:12.636Z,26.70
2019-04-14T21:06:02.856Z,26.93
2019-04-14T21:09:07.654Z,17.73
2019-04-14T21:12:01.973Z,17.63
2019-04-14T21:14:47.080Z,17.77
2019-04-14T21:17:26.949Z,14.37
2019-04-14T21:20:06.808Z,15.97
2019-04-14T21:22:45.654Z,17.17
2019-04-14T21:25:40.692Z,17.40
2019-04-14T21:28:28.416Z,23.90
2019-04-14T21:31:23.602Z,13.93
2019-04-14T21:34:02.971Z,16.43
2019-04-14T21:36:52.362Z,15.63
2019-04-14T21:39:36.486Z,16.93
2019-04-14T21:42:07.334Z,17.30
2019-04-14T21:44:37.787Z,17.63
2019-04-14T21:47:08.247Z,16.83
2019-04-14T21:49:39.759Z,18.80
2019-04-14T21:52:23.952Z,17.83
2019-04-14T21:54:55.079Z,19.33
2019-04-14T21:57:47.535Z,16.87
2019-04-14T22:00:27.963Z,15.73
2019-04-14T22:03:19.812Z,16.90
2019-04-14T22:05:58.402Z,16.03
2019-04-14T22:08:32.182Z,19.07
2019-04-14T22:11:06.472Z,24.03
2019-04-14T22:13:37.065Z,22.43
2019-04-14T22:16:09.130Z,19.53
2019-04-14T22:18:39.575Z,17.77
2019-04-14T22:21:10.113Z,19.13
2019-04-14T22:23:40.607Z,16.77
2019-04-14T22:26:11.223Z,17.50
2019-04-14T22:28:41.717Z,18.77
2019-04-14T22:31:12.217Z,20.67
2019-04-14T22:33:42.681Z,17.87
2019-04-14T22:36:13.175Z,18.67
2019-04-14T22:38:43.738Z,20.03
2019-04-14T22:41:14.235Z,20.23
2019-04-14T22:43:44.745Z,19.10
2019-04-14T22:46:15.240Z,16.43
2019-04-14T22:48:45.723Z,20.33
2019-04-14T22:51:16.270Z,19.10
2019-04-14T22:53:46.730Z,17.40
2019-04-14T22:56:17.436Z,23.90
2019-04-14T22:58:48.065Z,18.43
2019-04-14T23:01:25.744Z,19.17
2019-04-14T23:04:13.802Z,17.10
2019-04-14T23:07:06.069Z,16.93
2019-04-14T23:09:50.179Z,17.53
2019-04-14T23:12:28.359Z,21.80
2019-04-14T23:15:23.850Z,20.47
2019-04-14T23:18:13.443Z,19.87
2019-04-14T23:21:05.918Z,27.13
2019-04-14T23:23:55.079Z,20.90
2019-04-14T23:26:25.754Z,24.70
2019-04-14T23:28:56.303Z,19.70
2019-04-14T23:31:26.752Z,22.53
2019-04-14T23:33:57.400Z,17.53
2019-04-14T23:36:27.982Z,20.73
2019-04-14T23:38:58.511Z,17.93
2019-04-14T23:41:28.959Z,19.77
2019-04-14T23:43:59.478Z,19.83
2019-04-14T23:46:29.993Z,24.67
2019-04-14T23:49:00.504Z,22.27
2019-04-14T23:51:31.029Z,21.50
2019-04-14T23:54:01.560Z,21.20
2019-04-14T23:56:32.212Z,20.30
2019-04-14T23:59:02.760Z,18.90
